Time;durP1;ratioP1;P1;durP2;ratioP2;P2;SDS_P1;SDS_P2;PMS_P1;PMS_P2;Temp;Humidity;BMP_temperature;BMP_pressure;BME280_temperature;BME280_humidity;BME280_pressure;Samples;Min_cycle;Max_cycle;Signal;HPM_P1;HPM_P2
2021/09/08 00:01:14;;;;;;;16.45;14.70;;;;;;;18.44;79.21;99608.09;5092346;28;20229;-73
2021/09/08 00:03:40;;;;;;;20.25;14.60;;;;;;;18.52;78.85;99605.53;5092147;28;20316;-73
2021/09/08 00:06:07;;;;;;;15.55;14.00;;;;;;;18.43;79.17;99597.31;5091991;28;20203;-73
2021/09/08 00:08:35;;;;;;;15.32;13.75;;;;;;;18.36;79.86;99605.22;5091916;28;20647;-73
2021/09/08 00:11:02;;;;;;;15.23;13.73;;;;;;;18.59;77.88;99594.06;5092193;28;20727;-74
2021/09/08 00:13:29;;;;;;;16.40;14.57;;;;;;;18.59;78.24;99604.97;5092308;28;20202;-74
2021/09/08 00:15:56;;;;;;;17.83;14.38;;;;;;;18.39;78.77;99594.03;5091679;28;20194;-74
2021/09/08 00:18:22;;;;;;;16.10;13.88;;;;;;;18.44;78.62;99591.75;5092011;28;20194;-73
2021/09/08 00:20:49;;;;;;;17.60;14.23;;;;;;;18.38;78.92;99585.97;5091843;28;20194;-74
2021/09/08 00:23:16;;;;;;;15.32;13.80;;;;;;;18.36;78.87;99590.72;5093358;28;20201;-74
2021/09/08 00:25:44;;;;;;;17.13;14.13;;;;;;;18.58;77.64;99581.44;5095767;28;20630;-74
2021/09/08 00:28:11;;;;;;;16.15;14.40;;;;;;;18.57;77.38;99586.03;5095601;28;20218;-75
2021/09/08 00:30:37;;;;;;;15.57;13.73;;;;;;;18.47;77.82;99585.13;5095611;28;20642;-74
2021/09/08 00:33:04;;;;;;;16.35;13.80;;;;;;;18.43;77.90;99579.13;5095509;28;20293;-74
2021/09/08 00:35:30;;;;;;;15.70;13.93;;;;;;;18.38;78.10;99584.09;5095248;28;20191;-73
2021/09/08 00:37:57;;;;;;;15.98;13.10;;;;;;;18.26;78.67;99577.91;5095206;28;20187;-73
2021/09/08 00:40:25;;;;;;;17.30;14.55;;;;;;;18.16;79.12;99571.59;5095766;28;20588;-73
2021/09/08 00:42:53;;;;;;;16.52;14.02;;;;;;;18.15;79.63;99569.00;5095043;28;20193;-74
2021/09/08 00:45:20;;;;;;;15.95;12.98;;;;;;;18.19;79.48;99574.03;5095285;28;20179;-74
2021/09/08 00:47:48;;;;;;;15.40;13.45;;;;;;;18.24;78.95;99566.28;5094800;28;20262;-74
2021/09/08 00:50:14;;;;;;;16.50;14.80;;;;;;;18.24;79.25;99565.44;5095173;28;20217;-74
2021/09/08 00:52:42;;;;;;;17.20;15.18;;;;;;;18.36;78.60;99575.25;5095354;28;20192;-73
2021/09/08 00:55:11;;;;;;;16.20;14.55;;;;;;;18.40;78.40;99567.63;5095308;28;20218;-73
2021/09/08 00:57:38;;;;;;;16.42;14.38;;;;;;;18.43;78.00;99564.59;5094739;28;20206;-73
2021/09/08 01:00:08;;;;;;;17.73;14.30;;;;;;;18.18;79.07;99565.97;5095312;28;20621;-72
2021/09/08 01:02:35;;;;;;;17.05;14.07;;;;;;;18.01;79.93;99556.63;5094890;28;20355;-73
2021/09/08 01:05:01;;;;;;;17.48;13.98;;;;;;;18.06;79.58;99557.91;5095076;28;20609;-73
2021/09/08 01:07:28;;;;;;;16.88;13.93;;;;;;;17.96;80.37;99554.31;5094810;28;20199;-73
2021/09/08 01:09:55;;;;;;;16.20;14.02;;;;;;;17.70;81.47;99552.03;5094590;28;20187;-73
2021/09/08 01:12:21;;;;;;;15.60;13.50;;;;;;;17.79;81.26;99558.47;5095082;28;20189;-73
2021/09/08 01:14:48;;;;;;;17.58;14.32;;;;;;;17.64;81.98;99552.56;5094963;28;20669;-73
2021/09/08 01:17:17;;;;;;;16.05;13.70;;;;;;;17.67;82.01;99554.13;5094967;28;20191;-73
2021/09/08 01:19:44;;;;;;;21.25;14.60;;;;;;;17.58;82.01;99542.19;5094972;28;20185;-73
2021/09/08 01:22:11;;;;;;;17.08;13.95;;;;;;;17.59;81.93;99543.94;5094812;28;20316;-73
2021/09/08 01:24:40;;;;;;;17.13;14.25;;;;;;;17.53;82.36;99536.31;5094549;28;20268;-73
2021/09/08 01:27:07;;;;;;;16.55;13.90;;;;;;;17.55;82.15;99542.47;5094130;28;20212;-73
2021/09/08 01:29:33;;;;;;;19.45;13.45;;;;;;;17.52;82.43;99540.00;5094833;28;20221;-73
2021/09/08 01:32:00;;;;;;;15.68;13.25;;;;;;;17.56;82.11;99543.34;5094532;28;20572;-72
2021/09/08 01:34:28;;;;;;;18.95;14.85;;;;;;;17.75;81.02;99538.00;5093787;28;20195;-73
2021/09/08 01:36:55;;;;;;;16.92;14.40;;;;;;;17.72;80.85;99539.09;5094619;28;20590;-73
2021/09/08 01:39:22;;;;;;;18.27;14.57;;;;;;;17.75;80.53;99537.09;5094146;28;20200;-73
2021/09/08 01:41:51;;;;;;;16.38;13.85;;;;;;;17.86;79.81;99537.06;5094357;28;20224;-73
2021/09/08 01:44:19;;;;;;;18.60;14.80;;;;;;;17.90;79.29;99527.59;5093886;28;20273;-73
2021/09/08 01:46:46;;;;;;;16.90;13.95;;;;;;;17.85;79.51;99532.63;5093492;28;20208;-72
2021/09/08 01:49:13;;;;;;;14.25;12.75;;;;;;;17.72;80.54;99524.63;5094505;28;20956;-74
2021/09/08 01:51:39;;;;;;;14.93;13.32;;;;;;;17.68;80.52;99532.22;5094042;28;20349;-72
2021/09/08 01:54:06;;;;;;;17.13;13.57;;;;;;;17.55;81.72;99525.25;5094330;28;20192;-72
2021/09/08 01:56:33;;;;;;;15.27;13.65;;;;;;;17.70;81.15;99527.53;5093462;28;20718;-73
2021/09/08 01:59:01;;;;;;;16.35;14.05;;;;;;;17.91;80.62;99523.91;5094345;28;20531;-73
2021/09/08 02:01:27;;;;;;;18.73;14.60;;;;;;;17.80;81.07;99522.09;5094152;28;20202;-73
2021/09/08 02:03:54;;;;;;;18.23;14.43;;;;;;;17.85;81.04;99524.44;5093906;28;20261;-73
2021/09/08 02:06:23;;;;;;;18.83;14.80;;;;;;;17.79;81.10;99506.75;5094066;28;20203;-73
2021/09/08 02:08:50;;;;;;;15.57;13.98;;;;;;;17.65;81.07;99507.97;5093928;28;20201;-73
2021/09/08 02:11:17;;;;;;;17.13;14.13;;;;;;;17.40;82.39;99513.88;5093576;28;20244;-73
2021/09/08 02:13:44;;;;;;;16.77;14.20;;;;;;;17.23;83.20;99512.63;5094030;28;20220;-73
2021/09/08 02:16:12;;;;;;;18.35;13.95;;;;;;;16.98;85.14;99509.34;5093534;28;20239;-73
2021/09/08 02:18:38;;;;;;;17.23;13.63;;;;;;;17.08;85.13;99515.69;5093928;28;20349;-73
2021/09/08 02:21:05;;;;;;;16.90;13.48;;;;;;;17.14;84.54;99511.59;5093384;28;20234;-73
2021/09/08 02:23:32;;;;;;;20.13;15.65;;;;;;;17.13;84.46;99517.16;5092933;28;20283;-73
2021/09/08 02:25:58;;;;;;;17.27;14.23;;;;;;;17.11;84.33;99506.41;5093591;28;20198;-73
2021/09/08 02:28:25;;;;;;;20.15;14.43;;;;;;;17.10;84.15;99512.84;5092735;28;20310;-73
2021/09/08 02:30:52;;;;;;;16.67;14.18;;;;;;;17.15;83.70;99512.44;5093551;28;20212;-75
2021/09/08 02:33:20;;;;;;;18.60;13.15;;;;;;;17.15;83.26;99509.72;5093600;28;20914;-73
2021/09/08 02:35:46;;;;;;;16.20;12.95;;;;;;;17.17;83.29;99502.28;5093110;28;20300;-72
2021/09/08 02:38:13;;;;;;;18.48;14.75;;;;;;;17.13;83.05;99504.41;5093504;28;20904;-74
2021/09/08 02:40:40;;;;;;;14.48;12.82;;;;;;;17.18;82.50;99499.41;5093567;28;20324;-73
2021/09/08 02:43:06;;;;;;;18.65;13.60;;;;;;;17.22;82.28;99509.03;5093382;28;20972;-73
2021/09/08 02:45:33;;;;;;;17.15;13.85;;;;;;;17.19;82.59;99503.03;5092848;28;20275;-74
2021/09/08 02:47:59;;;;;;;17.42;13.95;;;;;;;17.15;82.85;99507.84;5092357;28;20207;-74
2021/09/08 02:50:27;;;;;;;14.85;12.85;;;;;;;17.17;82.72;99510.47;5093089;28;20181;-74
2021/09/08 02:52:54;;;;;;;18.42;14.18;;;;;;;17.22;82.30;99509.03;5092785;28;20184;-73
2021/09/08 02:55:20;;;;;;;17.08;14.07;;;;;;;17.22;81.96;99505.47;5093270;28;20291;-74
2021/09/08 02:57:47;;;;;;;18.23;13.90;;;;;;;17.32;81.52;99500.06;5092468;28;20194;-74
2021/09/08 03:00:15;;;;;;;20.27;17.30;;;;;;;17.46;82.59;99502.47;5092866;28;20184;-74
2021/09/08 03:02:41;;;;;;;22.10;19.70;;;;;;;17.40;84.16;99503.00;5092717;28;20236;-74
2021/09/08 03:05:09;;;;;;;19.40;17.27;;;;;;;17.40;83.97;99492.97;5092798;28;20203;-73
2021/09/08 03:07:37;;;;;;;19.52;14.30;;;;;;;17.42;82.52;99492.84;5093196;28;20209;-74
2021/09/08 03:10:04;;;;;;;19.30;16.88;;;;;;;17.41;82.23;99494.72;5092641;28;20201;-74
2021/09/08 03:12:31;;;;;;;19.90;17.55;;;;;;;17.45;82.80;99490.69;5092432;28;20277;-74
2021/09/08 03:14:57;;;;;;;20.45;17.05;;;;;;;17.40;83.43;99494.84;5092756;28;20306;-74
2021/09/08 03:17:24;;;;;;;16.65;14.68;;;;;;;17.40;82.54;99492.09;5093004;28;20183;-73
2021/09/08 03:19:50;;;;;;;16.23;14.38;;;;;;;17.36;82.52;99486.06;5092822;28;20209;-74
2021/09/08 03:22:17;;;;;;;18.95;14.25;;;;;;;17.38;81.23;99488.66;5092749;28;20248;-74
2021/09/08 03:24:45;;;;;;;17.75;14.40;;;;;;;17.38;81.22;99489.50;5091905;28;20199;-74
2021/09/08 03:27:12;;;;;;;20.30;14.40;;;;;;;17.17;82.08;99486.81;5092569;28;20612;-74
2021/09/08 03:29:38;;;;;;;15.68;12.55;;;;;;;16.99;82.87;99488.44;5092469;28;20182;-74
2021/09/08 03:32:05;;;;;;;17.95;13.95;;;;;;;16.96;83.45;99488.69;5091986;28;20223;-74
2021/09/08 03:34:32;;;;;;;17.92;14.27;;;;;;;16.94;83.21;99479.81;5092001;28;20192;-74
2021/09/08 03:36:59;;;;;;;16.08;14.15;;;;;;;16.98;83.55;99481.25;5092624;28;20192;-74
2021/09/08 03:39:25;;;;;;;17.35;13.82;;;;;;;17.13;82.77;99484.50;5092313;28;20207;-74
2021/09/08 03:41:53;;;;;;;19.70;15.07;;;;;;;17.22;82.22;99484.56;5091743;28;20180;-74
2021/09/08 03:44:20;;;;;;;19.10;15.90;;;;;;;17.13;83.06;99479.06;5091222;28;20233;-74
2021/09/08 03:46:47;;;;;;;21.60;15.07;;;;;;;17.04;83.50;99478.88;5091746;28;20201;-73
2021/09/08 03:49:13;;;;;;;20.00;15.10;;;;;;;17.09;83.37;99481.19;5091895;28;20526;-73
2021/09/08 03:51:40;;;;;;;19.95;15.98;;;;;;;17.11;83.54;99472.91;5092392;28;20204;-73
2021/09/08 03:54:06;;;;;;;19.88;16.92;;;;;;;17.40;82.10;99478.50;5091870;28;20291;-74
2021/09/08 03:56:33;;;;;;;20.98;18.45;;;;;;;17.33;82.41;99478.19;5092263;28;20595;-73
2021/09/08 03:59:01;;;;;;;21.17;18.90;;;;;;;17.27;82.90;99482.28;5095153;28;20295;-74
2021/09/08 04:01:27;;;;;;;21.33;17.48;;;;;;;17.22;83.56;99470.09;5096530;28;20677;-74
2021/09/08 04:03:54;;;;;;;18.38;15.63;;;;;;;17.18;82.71;99476.81;5096216;28;20271;-74
2021/09/08 04:06:20;;;;;;;18.05;14.40;;;;;;;17.06;82.46;99470.59;5096422;28;20200;-74
2021/09/08 04:08:47;;;;;;;18.48;14.88;;;;;;;17.13;82.39;99466.31;5096113;28;20280;-74
2021/09/08 04:11:15;;;;;;;16.35;13.90;;;;;;;16.91;83.07;99463.75;5096418;28;20207;-74
2021/09/08 04:13:41;;;;;;;19.73;15.80;;;;;;;16.81;84.18;99466.41;5095126;28;20291;-74
2021/09/08 04:16:09;;;;;;;21.38;14.95;;;;;;;16.87;84.00;99474.91;5095397;28;20212;-74
2021/09/08 04:18:36;;;;;;;17.48;14.90;;;;;;;16.81;84.24;99463.69;5096259;28;20674;-74
2021/09/08 04:21:03;;;;;;;20.23;16.45;;;;;;;16.80;84.66;99461.94;5095776;28;20242;-73
2021/09/08 04:23:29;;;;;;;21.77;17.23;;;;;;;16.76;85.01;99461.34;5095886;28;20237;-72
2021/09/08 04:25:56;;;;;;;20.25;16.65;;;;;;;16.80;84.86;99468.28;5096172;28;20196;-73
2021/09/08 04:28:22;;;;;;;23.35;16.75;;;;;;;16.92;84.63;99460.91;5095881;28;20289;-73
2021/09/08 04:30:49;;;;;;;23.27;18.27;;;;;;;16.94;84.49;99464.34;5095523;28;20275;-73
2021/09/08 04:33:17;;;;;;;19.33;16.70;;;;;;;17.07;83.60;99461.41;5094894;28;20223;-73
2021/09/08 04:35:44;;;;;;;23.52;17.33;;;;;;;16.99;83.70;99455.78;5095290;28;20280;-73
2021/09/08 04:38:10;;;;;;;20.67;17.55;;;;;;;16.93;83.81;99459.03;5095478;28;20279;-73
2021/09/08 04:40:37;;;;;;;21.67;19.23;;;;;;;16.86;84.51;99459.56;5095646;28;20202;-73
2021/09/08 04:43:04;;;;;;;20.25;16.10;;;;;;;16.95;83.56;99455.19;5095161;28;20181;-73
2021/09/08 04:45:30;;;;;;;20.75;17.17;;;;;;;16.83;84.04;99457.13;5095530;28;20184;-73
2021/09/08 04:47:57;;;;;;;20.15;16.55;;;;;;;16.90;84.02;99462.03;5095481;28;20259;-74
2021/09/08 04:50:25;;;;;;;18.55;15.48;;;;;;;16.94;82.41;99458.91;5095560;28;20208;-73
2021/09/08 04:52:52;;;;;;;18.50;15.40;;;;;;;16.86;82.95;99462.28;5091269;28;20202;-73
2021/09/08 04:55:18;;;;;;;19.95;15.63;;;;;;;16.80;83.45;99456.50;5095153;28;20295;-73
2021/09/08 04:57:45;;;;;;;18.05;14.77;;;;;;;16.73;84.11;99458.00;5095498;28;20186;-73
2021/09/08 05:00:12;;;;;;;19.40;15.38;;;;;;;16.65;84.65;99456.81;5095202;28;20208;-73
2021/09/08 05:02:39;;;;;;;17.33;15.45;;;;;;;16.88;83.51;99463.00;5094402;28;20597;-73
2021/09/08 05:05:07;;;;;;;25.13;17.27;;;;;;;17.00;82.83;99462.94;5093853;28;20223;-74
2021/09/08 05:07:35;;;;;;;22.38;15.30;;;;;;;16.97;82.38;99463.22;5093978;28;20279;-73
2021/09/08 05:10:01;;;;;;;20.23;15.68;;;;;;;16.91;82.83;99455.59;5093892;28;20290;-73
2021/09/08 05:12:28;;;;;;;19.02;14.65;;;;;;;16.84;83.27;99456.13;5094150;28;20240;-73
2021/09/08 05:14:55;;;;;;;19.42;14.30;;;;;;;16.83;83.29;99453.53;5093907;28;20197;-73
2021/09/08 05:17:21;;;;;;;18.88;15.25;;;;;;;16.83;83.24;99448.97;5094309;28;20528;-74
2021/09/08 05:19:48;;;;;;;20.05;16.92;;;;;;;16.78;83.54;99456.63;5093941;28;20658;-73
2021/09/08 05:22:14;;;;;;;23.35;19.77;;;;;;;17.05;82.50;99458.00;5093788;28;20268;-74
2021/09/08 05:24:42;;;;;;;21.17;16.33;;;;;;;17.14;81.70;99450.84;5093584;28;20742;-74
2021/09/08 05:27:09;;;;;;;17.73;15.27;;;;;;;16.86;82.81;99445.09;5093649;28;20227;-73
2021/09/08 05:29:36;;;;;;;20.40;18.25;;;;;;;16.99;82.51;99451.22;5094035;28;20200;-73
2021/09/08 05:32:03;;;;;;;19.77;17.00;;;;;;;17.08;81.73;99455.00;5093892;28;20214;-74
2021/09/08 05:34:29;;;;;;;24.13;17.58;;;;;;;17.15;81.33;99456.16;5094445;28;20196;-74
2021/09/08 05:36:56;;;;;;;22.00;16.05;;;;;;;17.24;80.14;99449.91;5091716;28;20200;-73
2021/09/08 05:39:23;;;;;;;22.90;16.90;;;;;;;17.22;80.46;99448.34;5094188;28;20204;-73
2021/09/08 05:41:51;;;;;;;19.85;16.23;;;;;;;17.28;79.94;99448.66;5093771;28;20220;-72
2021/09/08 05:44:17;;;;;;;20.50;15.60;;;;;;;17.19;80.26;99451.34;5097065;28;20287;-73
2021/09/08 05:46:44;;;;;;;25.55;17.23;;;;;;;17.25;80.83;99453.50;5099493;28;20187;-74
2021/09/08 05:49:11;;;;;;;20.95;17.10;;;;;;;17.22;80.67;99446.47;5093981;28;20646;-75
2021/09/08 05:51:39;;;;;;;26.15;18.42;;;;;;;17.20;80.81;99455.75;5093244;28;20305;-73
2021/09/08 05:54:06;;;;;;;19.80;15.75;;;;;;;17.21;80.22;99454.78;5093448;28;20292;-74
2021/09/08 05:56:33;;;;;;;20.40;17.23;;;;;;;17.38;79.74;99451.41;5094051;28;20189;-72
2021/09/08 05:59:01;;;;;;;22.25;15.98;;;;;;;17.44;78.96;99450.03;5094174;28;20527;-74
2021/09/08 06:01:28;;;;;;;21.55;16.08;;;;;;;17.50;78.48;99449.44;5111123;28;20196;-74
2021/09/08 06:03:54;;;;;;;22.63;15.38;;;;;;;17.47;78.63;99450.59;5074349;28;1141117;-74
2021/09/08 06:06:21;;;;;;;20.05;16.10;;;;;;;17.41;78.97;99455.72;5115086;28;20201;-74
2021/09/08 06:08:47;;;;;;;21.70;17.33;;;;;;;17.40;79.30;99454.00;5102416;28;20203;-74
2021/09/08 06:11:14;;;;;;;20.42;16.33;;;;;;;17.46;78.94;99442.59;5094119;28;20180;-73
2021/09/08 06:13:41;;;;;;;23.13;16.65;;;;;;;17.47;78.82;99447.00;5093756;28;20319;-73
2021/09/08 06:16:09;;;;;;;21.17;16.05;;;;;;;17.64;78.55;99445.53;5094500;28;20210;-73
2021/09/08 06:18:36;;;;;;;22.15;16.75;;;;;;;17.65;78.15;99442.63;5095185;28;20281;-73
2021/09/08 06:21:03;;;;;;;26.05;17.02;;;;;;;17.64;77.97;99446.38;5093762;28;20248;-73
2021/09/08 06:23:29;;;;;;;24.65;16.67;;;;;;;17.67;77.97;99443.38;5094269;28;20177;-73
2021/09/08 06:25:56;;;;;;;24.63;17.30;;;;;;;17.66;78.02;99436.22;5094001;28;20182;-73
2021/09/08 06:28:23;;;;;;;20.88;14.45;;;;;;;17.68;77.91;99446.94;5093828;28;20519;-73
2021/09/08 06:30:50;;;;;;;18.83;15.70;;;;;;;17.79;77.58;99446.84;5094256;28;20611;-72
2021/09/08 06:33:18;;;;;;;18.05;14.45;;;;;;;17.80;76.91;99450.44;5093922;28;20215;-74
2021/09/08 06:35:45;;;;;;;16.92;14.40;;;;;;;17.79;77.00;99432.38;5085813;28;20202;-73
2021/09/08 06:38:11;;;;;;;18.20;14.23;;;;;;;17.66;77.47;99444.38;5093143;28;20276;-73
2021/09/08 06:40:39;;;;;;;18.40;14.02;;;;;;;17.77;76.84;99435.22;5093187;28;20272;-73
2021/09/08 06:43:12;;;;;;;20.45;15.98;;;;;;;17.75;77.37;99437.25;5092838;28;20198;-73
2021/09/08 06:45:38;;;;;;;17.38;14.15;;;;;;;17.68;77.15;99433.31;5092438;28;20250;-74
2021/09/08 06:48:05;;;;;;;17.80;13.93;;;;;;;17.82;77.25;99430.25;5092583;28;20214;-73
2021/09/08 06:50:33;;;;;;;16.65;13.60;;;;;;;17.97;76.19;99424.41;5092547;28;20237;-73
2021/09/08 06:53:00;;;;;;;20.58;14.43;;;;;;;18.06;75.76;99421.69;5093186;28;20203;-73
2021/09/08 06:55:27;;;;;;;16.02;12.55;;;;;;;18.15;75.17;99424.56;5093800;28;20193;-73
2021/09/08 06:57:54;;;;;;;15.63;13.43;;;;;;;18.13;75.08;99424.72;5093651;28;20653;-73
2021/09/08 07:00:20;;;;;;;19.48;12.88;;;;;;;18.26;74.54;99421.72;5092714;28;20218;-73
2021/09/08 07:02:47;;;;;;;16.73;14.93;;;;;;;18.21;74.50;99421.28;5093381;28;20226;-73
2021/09/08 07:05:13;;;;;;;17.77;14.25;;;;;;;18.24;74.10;99407.38;5092692;28;20659;-73
2021/09/08 07:07:41;;;;;;;17.20;13.90;;;;;;;18.37;73.75;99418.00;5086489;28;20290;-73
2021/09/08 07:10:09;;;;;;;16.95;13.60;;;;;;;18.40;73.19;99409.53;5087291;28;20306;-73
2021/09/08 07:12:35;;;;;;;23.95;15.98;;;;;;;18.51;73.18;99414.84;5073109;28;20216;-73
2021/09/08 07:15:02;;;;;;;16.35;13.45;;;;;;;18.49;72.86;99412.25;5093196;28;20241;-72
2021/09/08 07:17:29;;;;;;;19.20;14.65;;;;;;;18.62;72.73;99413.81;5092798;28;20281;-72
2021/09/08 07:19:55;;;;;;;17.67;12.85;;;;;;;18.71;71.89;99404.78;5084576;28;20548;-73
2021/09/08 07:22:22;;;;;;;14.98;13.07;;;;;;;18.78;71.58;99410.53;5090543;28;20281;-73
2021/09/08 07:24:50;;;;;;;20.77;13.50;;;;;;;19.06;70.72;99408.72;5093435;28;20187;-73
2021/09/08 07:27:17;;;;;;;15.15;12.25;;;;;;;19.24;69.40;99404.22;5093306;28;20290;-73
2021/09/08 07:29:44;;;;;;;16.00;13.02;;;;;;;19.35;68.50;99409.47;5092942;28;20206;-73
2021/09/08 07:32:11;;;;;;;13.90;12.02;;;;;;;19.25;68.44;99407.81;5092596;28;20650;-73
2021/09/08 07:34:37;;;;;;;14.15;12.35;;;;;;;19.49;67.33;99402.69;5093106;28;20260;-73
2021/09/08 07:37:04;;;;;;;15.57;13.10;;;;;;;19.52;66.94;99399.66;5085208;28;20637;-73
2021/09/08 07:39:31;;;;;;;17.67;13.75;;;;;;;19.69;66.40;99394.41;5092727;28;20230;-71
2021/09/08 07:42:00;;;;;;;14.32;12.55;;;;;;;19.74;66.17;99395.69;5093160;28;20289;-72
2021/09/08 07:44:27;;;;;;;13.77;11.97;;;;;;;19.77;66.02;99389.91;5093509;28;20180;-73
2021/09/08 07:46:54;;;;;;;14.73;13.00;;;;;;;19.85;65.65;99391.00;5092705;28;20430;-73
2021/09/08 07:49:21;;;;;;;15.90;13.20;;;;;;;20.05;65.53;99376.19;5093072;28;20446;-72
2021/09/08 07:51:47;;;;;;;16.05;13.90;;;;;;;20.30;64.57;99384.63;5093295;28;20845;-72
2021/09/08 07:54:14;;;;;;;16.60;13.87;;;;;;;20.51;62.74;99376.09;5092597;28;20306;-73
2021/09/08 07:56:41;;;;;;;14.30;12.80;;;;;;;20.69;62.44;99365.16;5091081;28;20571;-73
2021/09/08 07:59:09;;;;;;;15.10;13.33;;;;;;;20.94;61.15;99372.53;5079744;28;20465;-73
2021/09/08 08:01:35;;;;;;;18.77;13.30;;;;;;;21.15;60.78;99374.03;5092406;28;20430;-72
2021/09/08 08:04:02;;;;;;;14.80;12.73;;;;;;;21.16;60.32;99364.78;5092269;28;20519;-72
2021/09/08 08:06:29;;;;;;;17.20;15.23;;;;;;;21.34;59.80;99370.19;5092474;28;20457;-71
2021/09/08 08:08:55;;;;;;;18.80;15.40;;;;;;;21.47;59.39;99365.13;5093381;28;20480;-72
2021/09/08 08:11:22;;;;;;;16.03;13.13;;;;;;;21.69;58.59;99363.69;5092567;28;20428;-73
2021/09/08 08:13:49;;;;;;;14.80;11.20;;;;;;;21.92;56.84;99363.91;5092634;28;20458;-72
2021/09/08 08:16:17;;;;;;;13.70;11.67;;;;;;;22.03;56.30;99365.47;5092593;28;20434;-73
2021/09/08 08:18:43;;;;;;;14.67;12.87;;;;;;;22.05;55.92;99368.91;5090182;28;20470;-73
2021/09/08 08:21:10;;;;;;;17.27;12.80;;;;;;;22.34;55.33;99373.06;5067861;28;20518;-73
2021/09/08 08:23:37;;;;;;;12.60;11.30;;;;;;;22.40;54.73;99367.75;5092156;28;20877;-73
2021/09/08 08:26:04;;;;;;;14.03;11.87;;;;;;;22.45;54.04;99370.88;5090937;28;20864;-73
2021/09/08 08:28:31;;;;;;;14.30;10.83;;;;;;;22.75;53.08;99370.31;5092177;28;20426;-73
2021/09/08 08:30:58;;;;;;;13.63;10.90;;;;;;;22.85;51.92;99374.59;5092122;28;20419;-73
2021/09/08 08:33:26;;;;;;;10.97;9.87;;;;;;;22.86;52.33;99372.72;5091850;28;20481;-73
2021/09/08 08:35:53;;;;;;;12.20;10.60;;;;;;;22.92;51.48;99371.19;5092581;28;20951;-73
2021/09/08 08:38:20;;;;;;;13.57;10.03;;;;;;;22.82;51.28;99374.13;5092296;28;20854;-73
2021/09/08 08:40:47;;;;;;;11.50;10.07;;;;;;;22.81;51.09;99366.88;5092505;28;20436;-73
2021/09/08 08:43:14;;;;;;;13.00;10.83;;;;;;;22.79;51.62;99364.31;5091490;28;20417;-73
2021/09/08 08:45:41;;;;;;;11.47;10.27;;;;;;;22.87;51.76;99360.72;5112533;28;20459;-74
2021/09/08 08:48:08;;;;;;;11.63;9.80;;;;;;;22.91;51.26;99370.31;5102364;28;20532;-73
2021/09/08 08:50:36;;;;;;;21.57;12.80;;;;;;;23.00;51.23;99365.72;5096705;28;20504;-74
2021/09/08 08:53:03;;;;;;;11.70;10.40;;;;;;;22.85;51.37;99352.66;5095941;28;20484;-74
2021/09/08 08:55:30;;;;;;;11.50;10.37;;;;;;;22.94;51.37;99358.13;5094993;28;20861;-74
2021/09/08 08:57:58;;;;;;;14.97;10.03;;;;;;;23.07;51.03;99361.22;5095649;28;20434;-74
2021/09/08 09:00:26;;;;;;;13.47;11.27;;;;;;;23.26;50.21;99352.56;5095133;28;20581;-73
2021/09/08 09:02:54;;;;;;;13.10;10.73;;;;;;;23.30;50.25;99358.56;5095206;28;20465;-72
2021/09/08 09:05:33;;;;;;;13.40;10.20;;;;;;;23.26;50.15;99348.97;5095639;28;20951;-74
2021/09/08 09:08:02;;;;;;;15.53;9.73;;;;;;;23.36;50.01;99348.75;5095506;28;20504;-72
2021/09/08 09:10:29;;;;;;;11.73;10.53;;;;;;;23.51;49.93;99342.34;5096352;28;20430;-72
2021/09/08 09:12:56;;;;;;;11.87;9.57;;;;;;;23.61;48.88;99342.13;5095428;28;20996;-73
2021/09/08 09:15:24;;;;;;;16.37;11.20;;;;;;;23.73;48.17;99342.59;5095129;28;20524;-74
2021/09/08 09:17:51;;;;;;;15.10;11.30;;;;;;;23.96;47.40;99330.78;5095167;28;20469;-74
2021/09/08 09:20:20;;;;;;;13.00;9.50;;;;;;;24.22;46.56;99333.16;5095223;28;20793;-73
2021/09/08 09:22:49;;;;;;;18.20;10.83;;;;;;;24.12;46.94;99327.94;5094613;28;20430;-73
2021/09/08 09:25:19;;;;;;;12.50;9.70;;;;;;;24.21;46.81;99329.56;5095402;28;20425;-74
2021/09/08 09:27:49;;;;;;;11.80;9.40;;;;;;;24.18;46.69;99321.69;5093335;28;20524;-74
2021/09/08 09:30:18;;;;;;;12.33;9.50;;;;;;;24.35;46.62;99330.66;5093655;28;20528;-74
2021/09/08 09:32:47;;;;;;;12.50;8.90;;;;;;;24.63;45.20;99319.13;5093786;28;20501;-74
2021/09/08 09:35:16;;;;;;;12.47;9.53;;;;;;;24.55;44.69;99329.13;5094998;28;20450;-74
2021/09/08 09:37:45;;;;;;;12.10;8.60;;;;;;;24.51;44.49;99322.31;5094284;28;20440;-73
2021/09/08 09:40:13;;;;;;;12.60;10.43;;;;;;;24.60;45.10;99320.31;5094364;28;20489;-73
2021/09/08 09:42:41;;;;;;;12.53;9.63;;;;;;;24.62;44.17;99317.41;5094718;28;20442;-73
2021/09/08 09:45:10;;;;;;;11.47;9.00;;;;;;;24.66;42.81;99307.72;5093271;28;20438;-73
2021/09/08 09:47:38;;;;;;;10.20;8.87;;;;;;;24.71;42.89;99305.25;5093397;28;20441;-72
2021/09/08 09:50:06;;;;;;;10.87;9.63;;;;;;;24.79;42.99;99315.34;5093539;28;20517;-73
2021/09/08 09:52:34;;;;;;;10.33;8.70;;;;;;;24.97;42.94;99305.66;5094067;28;20799;-73
2021/09/08 09:55:01;;;;;;;11.30;9.00;;;;;;;24.74;41.91;99314.00;5093450;28;20804;-72
2021/09/08 09:57:28;;;;;;;10.03;8.80;;;;;;;24.74;42.28;99307.66;5093674;28;20426;-73
2021/09/08 09:59:57;;;;;;;9.70;8.80;;;;;;;25.00;42.24;99320.09;5093979;28;20446;-73
2021/09/08 10:02:24;;;;;;;9.63;7.93;;;;;;;24.84;41.86;99310.97;5091119;28;20434;-73
2021/09/08 10:04:51;;;;;;;9.57;8.67;;;;;;;24.98;41.11;99314.78;5094118;28;20426;-73
2021/09/08 10:07:22;;;;;;;16.80;8.80;;;;;;;25.03;40.75;99311.47;5094380;28;20453;-73
2021/09/08 10:09:52;;;;;;;12.27;9.30;;;;;;;25.13;41.27;99310.13;5093814;28;20757;-74
2021/09/08 10:12:22;;;;;;;8.90;8.10;;;;;;;25.26;40.08;99303.13;5093806;28;20473;-74
2021/09/08 10:14:51;;;;;;;12.17;9.10;;;;;;;25.56;38.50;99304.81;5093653;28;20472;-74
2021/09/08 10:17:19;;;;;;;9.37;8.37;;;;;;;25.76;37.93;99298.69;5093323;28;20513;-74
2021/09/08 10:19:49;;;;;;;9.53;8.53;;;;;;;25.76;37.67;99295.91;5093649;28;20906;-74
2021/09/08 10:22:16;;;;;;;9.67;7.87;;;;;;;25.72;37.98;99300.09;5093261;28;20503;-72
2021/09/08 10:24:45;;;;;;;9.67;7.83;;;;;;;25.76;37.68;99295.91;5085083;28;20497;-73
2021/09/08 10:27:23;;;;;;;8.37;7.60;;;;;;;25.64;37.42;99291.94;5092508;28;20426;-73
2021/09/08 10:29:52;;;;;;;10.13;8.40;;;;;;;25.67;37.88;99284.16;5093095;28;20477;-73
2021/09/08 10:32:21;;;;;;;9.10;8.20;;;;;;;25.83;37.36;99280.31;5092940;28;20509;-73
2021/09/08 10:34:49;;;;;;;16.10;13.30;;;;;;;25.77;37.54;99278.31;5092625;28;20462;-74
2021/09/08 10:37:16;;;;;;;9.13;8.23;;;;;;;25.95;37.08;99286.19;5088650;28;20520;-74
2021/09/08 10:39:44;;;;;;;9.97;8.47;;;;;;;25.88;37.78;99272.31;5093003;28;20462;-74
2021/09/08 10:42:10;;;;;;;11.30;9.37;;;;;;;26.02;37.12;99269.69;5092615;28;20437;-74
2021/09/08 10:44:42;;;;;;;11.27;9.10;;;;;;;25.96;37.47;99268.56;5093195;28;20426;-74
2021/09/08 10:47:10;;;;;;;10.80;8.50;;;;;;;25.84;37.73;99256.31;5093157;28;20765;-74
2021/09/08 10:49:50;;;;;;;12.07;8.50;;;;;;;25.71;37.96;99262.53;5092512;28;20484;-74
2021/09/08 10:52:46;;;;;;;11.17;9.10;;;;;;;25.78;37.29;99257.97;5093279;28;20462;-74
2021/09/08 10:55:23;;;;;;;9.00;7.63;;;;;;;25.85;36.65;99252.53;5093196;28;20462;-74
2021/09/08 10:58:11;;;;;;;8.73;7.87;;;;;;;25.97;37.50;99250.97;5093110;28;20458;-73
2021/09/08 11:00:40;;;;;;;8.67;7.77;;;;;;;25.94;37.35;99249.47;5092718;28;20949;-73
2021/09/08 11:03:10;;;;;;;11.30;8.97;;;;;;;25.94;37.95;99251.38;5092664;28;20516;-73
2021/09/08 11:05:49;;;;;;;11.87;8.37;;;;;;;25.97;37.61;99239.94;5092698;28;20748;-73
2021/09/08 11:08:27;;;;;;;11.50;8.07;;;;;;;25.95;37.20;99247.56;5092328;28;20561;-74
2021/09/08 11:11:12;;;;;;;9.23;7.77;;;;;;;26.06;37.01;99248.94;5092502;28;20496;-73
2021/09/08 11:13:39;;;;;;;8.27;7.10;;;;;;;26.11;36.91;99244.53;5092423;28;20474;-72
2021/09/08 11:16:22;;;;;;;12.47;8.97;;;;;;;26.20;36.51;99246.09;5092423;28;20521;-74
2021/09/08 11:18:50;;;;;;;9.90;8.33;;;;;;;26.41;35.50;99245.22;5092707;28;20521;-75
2021/09/08 11:21:23;;;;;;;10.03;8.47;;;;;;;26.25;36.54;99248.25;5092332;28;20505;-73